createdAt,value
2023-01-31T00:00:00.398Z,99254.00
2023-01-31T00:02:32.930Z,99250.26
2023-01-31T00:05:01.321Z,99244.79
2023-01-31T00:07:29.565Z,99239.79
2023-01-31T00:09:57.966Z,99237.77
2023-01-31T00:12:26.009Z,99238.10
2023-01-31T00:14:54.312Z,99240.02
2023-01-31T00:17:22.680Z,99235.91
2023-01-31T00:19:51.064Z,99238.16
2023-01-31T00:22:19.107Z,99241.66
2023-01-31T00:24:47.316Z,99241.58
2023-01-31T00:27:15.387Z,99236.66
2023-01-31T00:29:43.964Z,99237.58
2023-01-31T00:32:11.963Z,99233.15
2023-01-31T00:34:40.247Z,99237.13
2023-01-31T00:37:08.348Z,99237.49
2023-01-31T00:39:39.043Z,99236.86
2023-01-31T00:42:07.202Z,99236.23
2023-01-31T00:44:36.573Z,99236.41
2023-01-31T00:47:05.338Z,99236.58
2023-01-31T00:49:33.384Z,99235.69
2023-01-31T00:52:01.379Z,99234.98
2023-01-31T00:54:30.169Z,99233.37
2023-01-31T00:56:58.231Z,99231.77
2023-01-31T00:59:27.402Z,99223.84
2023-01-31T01:01:55.583Z,99220.30
2023-01-31T01:04:24.364Z,99222.59
2023-01-31T01:06:53.120Z,99221.95
2023-01-31T01:09:22.886Z,99219.63
2023-01-31T01:11:51.015Z,99221.07
2023-01-31T01:14:19.324Z,99220.25
2023-01-31T01:16:49.978Z,99218.42
2023-01-31T01:19:19.563Z,99216.22
2023-01-31T01:21:48.992Z,99218.99
2023-01-31T01:24:18.975Z,99221.03
2023-01-31T01:26:48.444Z,99224.86
2023-01-31T01:29:16.716Z,99220.54
2023-01-31T01:31:46.703Z,99218.42
2023-01-31T01:34:15.888Z,99214.14
2023-01-31T01:36:47.542Z,99207.95
2023-01-31T01:39:17.153Z,99206.05
2023-01-31T01:41:45.767Z,99214.10
2023-01-31T01:44:52.745Z,99215.29
2023-01-31T01:47:40.709Z,99216.64
2023-01-31T01:50:22.631Z,99212.04
2023-01-31T01:53:13.101Z,99207.60
2023-01-31T01:55:46.420Z,99208.27
2023-01-31T01:58:26.618Z,99211.69
2023-01-31T02:00:55.392Z,99213.02
2023-01-31T02:03:23.447Z,99208.98
2023-01-31T02:06:10.368Z,99208.58
2023-01-31T02:08:39.706Z,99205.48
2023-01-31T02:11:11.174Z,99203.09
2023-01-31T02:13:40.510Z,99206.55
2023-01-31T02:16:14.201Z,99209.29
2023-01-31T02:18:43.301Z,99209.63
2023-01-31T02:21:32.927Z,99205.14
2023-01-31T02:24:07.050Z,99203.17
2023-01-31T02:27:04.919Z,99205.75
2023-01-31T02:29:58.156Z,99206.45
2023-01-31T02:32:51.559Z,99206.45
2023-01-31T02:35:44.544Z,99203.48
2023-01-31T02:38:30.928Z,99201.22
2023-01-31T02:47:39.461Z,99207.79
2023-01-31T02:50:12.472Z,99213.20
2023-01-31T02:52:58.664Z,99212.67
2023-01-31T02:55:55.412Z,99213.39
2023-01-31T02:58:22.098Z,99216.52
2023-01-31T03:00:48.916Z,99216.07
2023-01-31T03:03:24.584Z,99219.77
2023-01-31T03:06:24.127Z,99224.30
2023-01-31T03:09:22.356Z,99225.02
2023-01-31T03:12:15.999Z,99221.80
2023-01-31T03:15:03.231Z,99220.48
2023-01-31T03:17:36.507Z,99219.66
2023-01-31T03:20:03.736Z,99226.23
2023-01-31T03:22:40.046Z,99226.67
2023-01-31T03:25:11.491Z,99227.57
2023-01-31T03:27:41.311Z,99229.83
2023-01-31T03:30:12.561Z,99224.71
2023-01-31T03:32:44.606Z,99221.82
2023-01-31T03:35:11.388Z,99218.73
2023-01-31T03:37:43.926Z,99226.86
2023-01-31T03:40:26.886Z,99225.30
2023-01-31T03:43:14.830Z,99223.39
2023-01-31T03:45:46.463Z,99226.27
2023-01-31T03:48:17.649Z,99226.45
2023-01-31T03:50:53.013Z,99224.41
2023-01-31T03:53:24.994Z,99228.87
2023-01-31T03:56:05.423Z,99228.66
2023-01-31T03:58:35.904Z,99229.61
2023-01-31T04:01:04.757Z,99233.89
2023-01-31T04:03:40.203Z,99231.84
2023-01-31T04:06:07.182Z,99231.14
2023-01-31T04:08:34.496Z,99226.65
2023-01-31T04:11:04.930Z,99224.88
2023-01-31T04:13:32.445Z,99229.46
2023-01-31T04:15:59.348Z,99230.64
2023-01-31T04:18:26.042Z,99240.97
2023-01-31T04:20:52.859Z,99247.04
2023-01-31T04:23:19.877Z,99249.13
2023-01-31T04:25:48.069Z,99242.79
2023-01-31T04:28:14.931Z,99237.97
2023-01-31T04:30:41.958Z,99240.38
2023-01-31T04:33:08.618Z,99244.85
2023-01-31T04:35:39.391Z,99247.80
2023-01-31T04:38:06.030Z,99245.61
2023-01-31T04:40:33.459Z,99244.61
2023-01-31T04:43:01.017Z,99247.52
2023-01-31T04:45:27.634Z,99249.45
2023-01-31T04:47:54.578Z,99250.84
2023-01-31T04:50:21.357Z,99249.43
2023-01-31T04:52:51.448Z,99247.77
2023-01-31T04:55:18.977Z,99255.47
2023-01-31T04:57:46.032Z,99256.70
2023-01-31T05:00:13.273Z,99260.85
2023-01-31T05:02:40.262Z,99260.02
2023-01-31T05:05:08.265Z,99264.34
2023-01-31T05:07:35.828Z,99265.70
2023-01-31T05:10:03.125Z,99266.04
2023-01-31T05:12:30.526Z,99268.58
2023-01-31T05:14:57.275Z,99271.30
2023-01-31T05:17:29.166Z,99273.52
2023-01-31T05:19:56.720Z,99270.71
2023-01-31T05:22:23.956Z,99274.75
2023-01-31T05:24:50.990Z,99276.08
2023-01-31T05:27:18.414Z,99277.28
2023-01-31T05:29:45.508Z,99276.26
2023-01-31T05:32:13.974Z,99276.70
2023-01-31T05:34:40.638Z,99272.02
2023-01-31T05:37:07.477Z,99268.89
2023-01-31T05:39:36.849Z,99268.02
2023-01-31T05:42:03.820Z,99271.05
2023-01-31T05:44:32.190Z,99270.29
2023-01-31T05:47:00.246Z,99270.37
2023-01-31T05:49:31.487Z,99278.55
2023-01-31T05:51:59.375Z,99283.75
2023-01-31T05:54:26.024Z,99283.38
2023-01-31T05:56:56.248Z,99284.77
2023-01-31T05:59:23.052Z,99285.79
2023-01-31T06:01:50.184Z,99287.84
2023-01-31T06:04:20.757Z,99295.43
2023-01-31T06:06:47.611Z,99298.33
2023-01-31T06:09:14.235Z,99300.01
2023-01-31T06:11:41.112Z,99302.81
2023-01-31T08:25:07.411Z,99357.86
2023-01-31T08:27:35.807Z,99360.24
2023-01-31T08:30:04.772Z,99357.74
2023-01-31T08:32:32.933Z,99356.73
2023-01-31T08:35:05.756Z,99362.39
2023-01-31T08:37:34.993Z,99364.33
2023-01-31T08:40:03.944Z,99365.83
2023-01-31T08:42:32.651Z,99361.45
2023-01-31T08:45:00.846Z,99360.73
2023-01-31T08:47:31.568Z,99363.59
2023-01-31T08:49:59.606Z,99364.73
2023-01-31T08:52:27.813Z,99360.54
2023-01-31T08:54:55.769Z,99361.46
2023-01-31T08:57:23.834Z,99361.88
2023-01-31T08:59:51.881Z,99361.40
2023-01-31T09:02:19.972Z,99360.16
2023-01-31T09:04:48.268Z,99360.40
2023-01-31T09:07:16.261Z,99362.44
2023-01-31T09:09:45.822Z,99365.91
2023-01-31T09:12:13.831Z,99365.89
2023-01-31T09:14:42.798Z,99360.17
2023-01-31T09:17:10.952Z,99359.92
2023-01-31T09:19:39.524Z,99364.83
2023-01-31T09:22:07.682Z,99368.73
2023-01-31T09:24:35.915Z,99370.16
2023-01-31T09:27:05.464Z,99366.73
2023-01-31T09:29:33.791Z,99365.75
2023-01-31T09:32:02.197Z,99368.83
2023-01-31T09:34:30.879Z,99365.77
2023-01-31T09:36:59.380Z,99366.48
2023-01-31T09:39:27.581Z,99367.96
2023-01-31T09:42:18.453Z,99369.39
2023-01-31T09:44:54.426Z,99369.52
2023-01-31T09:47:29.916Z,99369.16
2023-01-31T09:50:01.444Z,99370.65
2023-01-31T09:52:32.197Z,99367.56
2023-01-31T09:55:00.266Z,99369.52
2023-01-31T09:57:47.085Z,99373.95
2023-01-31T10:00:15.786Z,99375.70
2023-01-31T10:03:18.772Z,99376.03
2023-01-31T10:05:57.075Z,99377.05
2023-01-31T10:08:41.301Z,99377.67
2023-01-31T10:11:16.244Z,99376.86
2023-01-31T10:13:51.229Z,99373.36
2023-01-31T10:16:27.100Z,99368.14
2023-01-31T10:19:01.937Z,99365.90
2023-01-31T10:21:37.591Z,99362.45
2023-01-31T10:24:18.752Z,99366.56
2023-01-31T10:26:46.848Z,99366.38
2023-01-31T10:29:29.662Z,99365.91
2023-01-31T10:32:30.313Z,99358.29
2023-01-31T10:35:04.554Z,99358.35
2023-01-31T10:37:39.457Z,99353.98
2023-01-31T10:40:23.488Z,99346.82
2023-01-31T10:42:55.012Z,99349.27
2023-01-31T10:45:31.057Z,99347.74
2023-01-31T10:48:16.649Z,99344.92
2023-01-31T10:51:09.160Z,99345.82
2023-01-31T10:54:21.032Z,99346.23
2023-01-31T10:56:48.972Z,99346.32
2023-01-31T10:59:26.007Z,99351.80
2023-01-31T11:01:54.414Z,99353.34
2023-01-31T11:04:30.889Z,99352.95
2023-01-31T11:07:00.567Z,99356.08
2023-01-31T11:09:32.693Z,99351.42
2023-01-31T11:12:02.464Z,99351.48
2023-01-31T11:14:31.614Z,99348.66
2023-01-31T11:17:15.003Z,99350.77
2023-01-31T11:19:48.769Z,99348.79
2023-01-31T11:22:30.555Z,99349.15
2023-01-31T11:24:59.960Z,99347.22
2023-01-31T11:27:38.684Z,99348.33
2023-01-31T11:30:07.999Z,99349.52
2023-01-31T11:32:37.123Z,99349.58
2023-01-31T11:35:06.522Z,99344.31
2023-01-31T11:37:34.992Z,99343.35
2023-01-31T11:40:15.624Z,99336.63
2023-01-31T11:42:53.921Z,99334.76
2023-01-31T11:45:24.173Z,99334.38
2023-01-31T11:47:53.406Z,99336.47
2023-01-31T11:50:24.001Z,99335.81
2023-01-31T11:53:04.367Z,99339.45
2023-01-31T11:55:37.361Z,99340.48
2023-01-31T11:58:19.339Z,99345.98
2023-01-31T12:01:14.895Z,99344.24
2023-01-31T14:19:44.292Z,99404.52
2023-01-31T14:22:17.934Z,99407.77
2023-01-31T14:24:58.621Z,99411.09
2023-01-31T14:27:43.056Z,99414.21
2023-01-31T14:30:20.794Z,99418.52
2023-01-31T14:32:50.114Z,99420.61
2023-01-31T14:35:41.390Z,99417.33
2023-01-31T14:38:25.153Z,99417.86
2023-01-31T14:41:06.436Z,99418.94
2023-01-31T14:43:44.418Z,99420.52
2023-01-31T14:46:17.018Z,99418.55
2023-01-31T14:49:10.628Z,99414.77
2023-01-31T14:52:08.022Z,99415.84
2023-01-31T14:54:42.803Z,99418.96
2023-01-31T14:57:31.049Z,99431.08
2023-01-31T15:00:15.872Z,99435.45
2023-01-31T15:02:50.199Z,99436.54
2023-01-31T15:05:33.308Z,99440.47
2023-01-31T15:08:06.540Z,99438.41
2023-01-31T15:11:04.194Z,99435.86
2023-01-31T15:13:47.494Z,99438.54
2023-01-31T15:16:32.603Z,99439.56
2023-01-31T15:19:20.827Z,99434.85
2023-01-31T15:21:55.325Z,99433.81
2023-01-31T15:24:35.827Z,99435.02
2023-01-31T15:27:07.272Z,99442.66
2023-01-31T15:30:09.577Z,99447.68
2023-01-31T15:32:40.983Z,99446.84
2023-01-31T15:35:24.136Z,99442.52
2023-01-31T15:37:58.319Z,99440.61
2023-01-31T15:40:28.855Z,99443.58
2023-01-31T15:43:22.677Z,99444.08
2023-01-31T15:45:54.209Z,99446.48
2023-01-31T15:48:22.855Z,99450.99
2023-01-31T15:50:56.650Z,99458.88
2023-01-31T15:53:26.581Z,99458.20
2023-01-31T15:55:56.502Z,99456.48
2023-01-31T15:58:27.845Z,99456.71
2023-01-31T16:01:01.028Z,99457.11
2023-01-31T16:03:39.573Z,99457.29
2023-01-31T16:06:18.261Z,99456.75
2023-01-31T16:08:51.678Z,99459.02
2023-01-31T16:11:19.779Z,99457.62
2023-01-31T16:13:48.495Z,99456.02
2023-01-31T16:16:16.977Z,99457.77
2023-01-31T16:18:50.061Z,99461.27
2023-01-31T16:21:31.747Z,99466.19
2023-01-31T16:24:08.265Z,99465.98
2023-01-31T16:26:38.427Z,99463.52
2023-01-31T16:29:10.780Z,99466.46
2023-01-31T16:31:51.698Z,99473.02
2023-01-31T16:34:30.670Z,99470.55
2023-01-31T16:37:01.623Z,99472.39
2023-01-31T16:39:47.378Z,99471.48
2023-01-31T16:42:15.394Z,99475.65
2023-01-31T16:44:45.371Z,99478.43
2023-01-31T16:47:33.179Z,99476.88
2023-01-31T16:50:22.672Z,99477.16
2023-01-31T16:53:08.566Z,99474.48
2023-01-31T16:55:36.689Z,99472.10
2023-01-31T16:58:04.743Z,99471.91
2023-01-31T17:00:34.081Z,99468.73
2023-01-31T17:03:02.216Z,99468.48
2023-01-31T17:05:36.639Z,99469.98
2023-01-31T17:08:05.291Z,99471.02
2023-01-31T17:10:34.890Z,99472.44
2023-01-31T17:13:14.956Z,99475.68
2023-01-31T17:15:43.828Z,99475.29
2023-01-31T17:18:13.911Z,99474.66
2023-01-31T17:20:44.142Z,99474.49
2023-01-31T17:23:12.322Z,99472.79
2023-01-31T17:25:40.889Z,99474.14
2023-01-31T17:28:09.076Z,99472.60
2023-01-31T17:30:41.752Z,99476.44
2023-01-31T17:33:13.592Z,99477.30
2023-01-31T17:35:43.419Z,99477.17
2023-01-31T17:38:11.504Z,99478.39
2023-01-31T17:40:40.135Z,99480.14
2023-01-31T17:43:17.271Z,99481.33
2023-01-31T17:45:45.334Z,99477.34
2023-01-31T17:48:17.420Z,99478.67
2023-01-31T17:50:53.679Z,99476.39
2023-01-31T17:53:22.037Z,99479.69
2023-01-31T17:55:50.173Z,99485.55
2023-01-31T17:58:18.480Z,99484.70
2023-01-31T18:00:46.972Z,99484.01
2023-01-31T20:12:07.099Z,99463.48
2023-01-31T20:14:36.151Z,99466.27
2023-01-31T20:17:04.722Z,99466.70
2023-01-31T20:19:33.208Z,99462.70
2023-01-31T20:22:01.998Z,99462.40
2023-01-31T20:24:30.467Z,99459.77
2023-01-31T20:27:01.249Z,99457.25
2023-01-31T20:29:29.766Z,99457.11
2023-01-31T20:31:58.146Z,99455.09
2023-01-31T20:34:26.555Z,99457.37
2023-01-31T20:36:55.336Z,99460.02
2023-01-31T20:39:25.368Z,99463.07
2023-01-31T20:41:53.601Z,99461.04
2023-01-31T20:44:21.622Z,99461.93
2023-01-31T20:46:49.986Z,99464.23
2023-01-31T20:49:18.523Z,99459.39
2023-01-31T20:51:47.167Z,99459.05
2023-01-31T20:54:15.741Z,99462.89
2023-01-31T20:56:43.979Z,99466.21
2023-01-31T20:59:12.215Z,99465.08
2023-01-31T21:01:40.788Z,99462.17
2023-01-31T21:04:08.953Z,99464.00
2023-01-31T21:06:40.432Z,99464.78
2023-01-31T21:09:09.092Z,99467.13
2023-01-31T21:11:37.237Z,99469.98
2023-01-31T21:14:05.472Z,99468.65
2023-01-31T21:16:33.815Z,99469.34
2023-01-31T21:19:02.019Z,99470.25
2023-01-31T21:21:30.364Z,99467.05
2023-01-31T21:23:58.531Z,99467.48
2023-01-31T21:26:27.081Z,99470.70
2023-01-31T21:28:55.473Z,99470.81
2023-01-31T21:31:24.316Z,99468.50
2023-01-31T21:33:52.685Z,99469.13
2023-01-31T21:36:24.161Z,99470.94
2023-01-31T21:38:52.899Z,99474.23
2023-01-31T21:41:39.804Z,99473.02
2023-01-31T21:44:07.955Z,99473.00
2023-01-31T21:46:36.148Z,99474.20
2023-01-31T21:49:04.644Z,99476.06
2023-01-31T21:51:32.852Z,99473.24
2023-01-31T21:54:01.311Z,99469.66
2023-01-31T21:56:30.948Z,99465.14
2023-01-31T21:58:59.173Z,99467.27
2023-01-31T22:01:29.300Z,99462.11
2023-01-31T22:03:58.107Z,99459.20
2023-01-31T22:06:34.481Z,99458.94
2023-01-31T22:09:02.773Z,99460.36
2023-01-31T22:11:33.311Z,99459.02
2023-01-31T22:14:03.602Z,99461.32
2023-01-31T22:16:32.726Z,99462.89
2023-01-31T22:19:01.645Z,99463.70
2023-01-31T22:21:32.154Z,99465.01
2023-01-31T22:24:02.999Z,99463.38
2023-01-31T22:26:34.379Z,99465.71
2023-01-31T22:29:04.519Z,99463.97
2023-01-31T22:31:34.935Z,99466.19
2023-01-31T22:34:04.725Z,99463.02
2023-01-31T22:36:34.095Z,99459.16
2023-01-31T22:39:04.712Z,99460.59
2023-01-31T22:41:33.888Z,99457.56
2023-01-31T22:44:02.158Z,99459.21
2023-01-31T22:46:30.606Z,99452.96
2023-01-31T22:48:58.742Z,99451.81
2023-01-31T22:51:28.294Z,99453.27
2023-01-31T22:53:57.165Z,99450.90
2023-01-31T22:56:28.573Z,99450.86
2023-01-31T22:59:01.600Z,99451.36
2023-01-31T23:01:34.970Z,99454.12
2023-01-31T23:04:04.621Z,99450.48
2023-01-31T23:06:32.854Z,99449.73
2023-01-31T23:09:01.503Z,99451.06
2023-01-31T23:11:31.160Z,99452.40
2023-01-31T23:14:00.104Z,99448.49
2023-01-31T23:16:47.310Z,99448.23
2023-01-31T23:19:19.149Z,99449.92
2023-01-31T23:21:49.101Z,99447.30
2023-01-31T23:24:19.220Z,99444.19
2023-01-31T23:26:48.172Z,99444.48
2023-01-31T23:29:17.573Z,99440.61
2023-01-31T23:31:46.370Z,99443.47
2023-01-31T23:34:15.063Z,99439.38
2023-01-31T23:36:43.840Z,99440.30
2023-01-31T23:39:12.711Z,99441.27
2023-01-31T23:41:41.720Z,99441.40
2023-01-31T23:44:10.108Z,99442.35
2023-01-31T23:46:39.258Z,99440.86
2023-01-31T23:49:08.155Z,99443.74
2023-01-31T23:51:36.532Z,99441.81
2023-01-31T23:54:04.789Z,99438.77
2023-01-31T23:56:32.865Z,99440.95
2023-01-31T23:59:00.968Z,99443.98
